VIDP

Indira Gandhi International Airport

New Delhi, India
TAF VIDP 180800Z 1809/1818 13006KT 3500 HZ FEW040 SCT100 TEMPO 1811/1814 FEW040CB
Issued Valid From Valid To
Oct-18 @ 08:00 UTC
(4 hours ago)
Oct-18 @ 09:00 UTC
(3 hours ago)
Oct-18 @ 18:00 UTC
(in 6 hours)
Oct-18 @ 09:00 to Oct-18 @ 18:00
TAF VIDP 180800Z 1809/1818 13006KT 3500 HZ FEW040 SCT100
Wind Visibility Clouds Conditions
130° at 6 knots 3,492 meters
  • Few at 4,000' AGL
  • Scattered at 10,000' AGL
  • Haze
Temporary Oct-18 @ 11:00 to Oct-18 @ 14:00
TEMPO 1811/1814 FEW040CB
Clouds
  • Few at 4,000' AGL
TAF VIDP 180800Z 1809/1818 13006KT 3500 HZ FEW040 SCT100 TEMPO 1811/1814 FEW040CB
Issued Oct-18 @ 08:00 UTC
(4 hours ago)
Valid From Oct-18 @ 09:00 UTC
(3 hours ago)
Valid To Oct-18 @ 18:00 UTC
(in 6 hours)
Oct-18 @ 09:00 - Oct-18 @ 18:00
Wind Visibility
130° at 6 knots 3,492 meters
Clouds
  • Few at 4,000' AGL
  • Scattered at 10,000' AGL
Conditions
  • Haze
Temporary Oct-18 @ 11:00 - Oct-18 @ 14:00
Clouds
  • Few at 4,000' AGL